createdAt,value
2018-05-11T02:20:05.414Z,0.1
2018-05-11T02:22:01.072Z,0.2
2018-05-11T02:23:01.072Z,0.3
2018-05-11T02:25:01.222Z,0.4
2018-05-11T02:26:01.165Z,0.5
2018-05-11T02:28:01.077Z,0.6
2018-05-11T02:29:01.104Z,0.7
2018-05-11T02:30:01.252Z,0.9
2018-05-11T02:31:01.108Z,1.0
2018-05-11T02:32:01.104Z,1.1
2018-05-11T02:33:01.107Z,1.3
2018-05-11T02:34:01.134Z,1.5
2018-05-11T02:35:01.251Z,1.7
2018-05-11T02:36:01.101Z,1.9
2018-05-11T02:37:01.188Z,2.1
2018-05-11T02:38:01.111Z,2.3
2018-05-11T02:39:01.118Z,2.7
2018-05-11T02:40:01.264Z,3.1
2018-05-11T02:41:01.121Z,3.5
2018-05-11T02:43:01.096Z,4.2
2018-05-11T02:44:01.115Z,4.9
2018-05-11T02:45:01.219Z,5.7
2018-05-11T02:46:01.096Z,6.7
2018-05-11T02:47:01.094Z,7.7
2018-05-11T02:48:01.098Z,9.0
2018-05-11T02:49:01.134Z,10.4
2018-05-11T02:50:01.242Z,12.1
2018-05-11T02:51:01.066Z,14.3
2018-05-11T02:52:01.102Z,16.8
2018-05-11T02:53:01.060Z,19.9
2018-05-11T02:54:01.120Z,23.7
2018-05-11T02:55:01.242Z,28.3
2018-05-11T02:56:01.067Z,33.9
2018-05-11T02:57:02.152Z,40.5
2018-05-11T02:58:01.103Z,48.3
2018-05-11T02:59:01.096Z,57.5
2018-05-11T03:00:01.209Z,67.9
2018-05-11T03:01:01.100Z,79.8
2018-05-11T03:02:01.129Z,93.3
2018-05-11T03:03:01.097Z,108.5
2018-05-11T03:04:01.102Z,125.5
2018-05-11T03:05:01.248Z,144.5
2018-05-11T03:06:01.066Z,165.3
2018-05-11T03:07:01.121Z,187.9
2018-05-11T03:08:01.128Z,212.3
2018-05-11T03:09:01.122Z,237.1
2018-05-11T03:10:01.270Z,263.5
2018-05-11T03:11:01.110Z,291.7
2018-05-11T03:12:01.104Z,321.2
2018-05-11T03:13:01.089Z,352.1
2018-05-11T03:14:01.101Z,384.3
2018-05-11T03:15:01.379Z,418.1
2018-05-11T03:16:01.103Z,453.7
2018-05-11T03:17:02.079Z,492.0
2018-05-11T03:18:01.123Z,533.4
2018-05-11T03:19:01.102Z,578.1
2018-05-11T03:20:01.249Z,626.1
2018-05-11T03:21:01.106Z,677.1
2018-05-11T03:22:01.107Z,731.9
2018-05-11T03:23:01.102Z,790.8
2018-05-11T03:24:01.079Z,855.6
2018-05-11T03:26:01.314Z,930.6
2018-05-11T03:27:01.095Z,1009.1
2018-05-11T03:28:01.097Z,1092.3
2018-05-11T03:29:01.100Z,1180.9
2018-05-11T03:30:06.068Z,1275.1
2018-05-11T03:31:01.240Z,1371.9
2018-05-11T03:32:01.065Z,1466.3
2018-05-11T03:33:01.069Z,1558.6
2018-05-11T03:34:01.198Z,1648.5
2018-05-11T03:35:01.101Z,1738.5
2018-05-11T03:36:01.256Z,1829.1
2018-05-11T03:37:01.096Z,1919.8
2018-05-11T03:38:01.065Z,2010.5
2018-05-11T03:39:01.111Z,2104.2
2018-05-11T03:40:01.097Z,2206.8
2018-05-11T03:41:01.250Z,2306.1
2018-05-11T03:42:01.068Z,2411.3
2018-05-11T03:43:01.099Z,2521.9
2018-05-11T03:44:01.123Z,2636.5
2018-05-11T03:45:01.076Z,2758.0
2018-05-11T03:46:01.242Z,2892.1
2018-05-11T03:47:01.072Z,3032.9
2018-05-11T03:48:01.106Z,3195.1
2018-05-11T03:49:01.071Z,3379.3
2018-05-11T03:50:01.109Z,3581.2
2018-05-11T03:51:01.279Z,3795.6
2018-05-11T03:52:01.107Z,4018.5
2018-05-11T03:53:01.119Z,4244.7
2018-05-11T03:54:01.104Z,4467.5
2018-05-11T03:55:01.136Z,4679.8
2018-05-11T03:56:02.287Z,4888.5
2018-05-11T03:57:01.106Z,5098.5
2018-05-11T03:58:01.109Z,5305.3
2018-05-11T03:59:01.107Z,5515.4
2018-05-11T04:00:01.196Z,5748.9
2018-05-11T04:01:01.242Z,5989.6
2018-05-11T04:02:06.111Z,6241.3
2018-05-11T04:03:01.111Z,6488.3
2018-05-11T04:05:01.087Z,6711.9
2018-05-11T04:06:01.255Z,6924.5
2018-05-11T04:07:01.085Z,7121.3
2018-05-11T04:08:01.103Z,7320.7
2018-05-11T04:09:01.090Z,7533.6
2018-05-11T04:10:01.089Z,7743.3
2018-05-11T04:11:02.315Z,7928.1
2018-05-11T04:12:01.081Z,8054.1
2018-05-11T04:13:01.091Z,8195.3
2018-05-11T04:14:01.090Z,8373.7
2018-05-11T04:15:01.096Z,8550.0
2018-05-11T04:16:06.282Z,8705.1
2018-05-11T04:17:01.090Z,8859.9
2018-05-11T04:18:01.087Z,9043.1
2018-05-11T04:19:01.091Z,9222.1
2018-05-11T04:20:01.099Z,9443.7
2018-05-11T04:21:01.237Z,9704.5
2018-05-11T04:22:01.115Z,10012.1
2018-05-11T04:23:01.092Z,10359.8
2018-05-11T04:24:01.096Z,10727.1
2018-05-11T04:25:01.094Z,11168.3
2018-05-11T04:26:06.238Z,11675.3
2018-05-11T04:27:01.097Z,12314.5
2018-05-11T04:28:01.060Z,13017.6
2018-05-11T04:29:01.093Z,13764.1
2018-05-11T04:30:01.096Z,14569.5
2018-05-11T04:31:01.261Z,15387.5
2018-05-11T04:32:01.089Z,16067.5
2018-05-11T04:33:01.122Z,16695.8
2018-05-11T04:34:01.091Z,17400.7
2018-05-11T04:35:01.092Z,18190.9
2018-05-11T04:36:01.242Z,19055.4
2018-05-11T04:37:01.098Z,19986.8
2018-05-11T04:38:01.124Z,20943.7
2018-05-11T04:39:01.098Z,21900.8
2018-05-11T04:40:01.099Z,22820.7
2018-05-11T04:41:01.242Z,23819.7
2018-05-11T04:42:01.095Z,24858.3
2018-05-11T04:43:01.124Z,25901.5
2018-05-11T04:44:01.095Z,26942.3
2018-05-11T04:45:01.094Z,27978.3
2018-05-11T04:46:01.301Z,29052.1
2018-05-11T04:47:01.095Z,30328.9
2018-05-11T04:48:01.128Z,31701.5
2018-05-11T04:49:01.095Z,33081.2
2018-05-11T04:50:01.099Z,34434.7
2018-05-11T04:51:01.235Z,35767.3
2018-05-11T04:52:01.097Z,37149.3
2018-05-11T04:53:01.135Z,38640.3
2018-05-11T04:54:01.099Z,40254.3
2018-05-11T04:55:01.093Z,41894.9
2018-05-11T04:56:01.496Z,43524.7
2018-05-11T04:57:01.101Z,45079.4
2018-05-11T04:58:01.134Z,46514.5
2018-05-11T04:59:06.106Z,47763.4
2018-05-11T05:00:01.113Z,48927.3
2018-05-11T05:01:01.250Z,50048.9
2018-05-11T05:02:01.062Z,50856.8
2018-05-11T05:03:01.131Z,51496.5
2018-05-11T05:04:01.099Z,52231.1
2018-05-11T05:05:01.097Z,52840.6
2018-05-11T05:06:01.275Z,53364.5
2018-05-11T05:07:01.099Z,53614.3
2018-05-11T05:08:01.105Z,53645.8
2018-05-11T05:09:01.102Z,53493.4
2018-05-11T05:10:01.065Z,53119.3
2018-05-11T05:11:01.266Z,52581.5
2018-05-11T05:12:01.103Z,52067.5
2018-05-11T05:13:01.104Z,51592.1
2018-05-11T05:14:01.122Z,51265.9
2018-05-11T05:15:01.097Z,50820.1
2018-05-11T05:16:01.249Z,50431.6
2018-05-11T05:17:01.097Z,50273.0
2018-05-11T05:18:01.098Z,50013.5
2018-05-11T05:19:01.195Z,49817.7
2018-05-11T05:20:01.075Z,49625.0
2018-05-11T05:21:01.252Z,49384.7
2018-05-11T05:22:01.100Z,49133.9
2018-05-11T05:23:01.101Z,48917.3
2018-05-11T05:24:01.123Z,48907.9
2018-05-11T05:25:01.157Z,49146.7
2018-05-11T05:26:01.316Z,49561.3
2018-05-11T05:27:01.105Z,49999.8
2018-05-11T05:28:01.142Z,50490.1
2018-05-11T05:29:01.098Z,51009.3
2018-05-11T05:30:01.104Z,51736.7
2018-05-11T05:31:01.250Z,52413.9
2018-05-11T05:32:01.110Z,53114.0
2018-05-11T05:33:01.171Z,54015.4
2018-05-11T05:34:01.106Z,54671.6
2018-05-11T05:35:01.100Z,55361.9
2018-05-11T05:36:01.248Z,56079.3
2018-05-11T05:37:01.107Z,56929.8
2018-05-11T05:38:01.143Z,57810.1
2018-05-11T05:39:01.104Z,58565.1
2018-05-11T05:40:01.107Z,59307.0
2018-05-11T05:41:01.255Z,60011.7
2018-05-11T05:42:01.113Z,60683.1
2018-05-11T05:43:01.137Z,61286.6
2018-05-11T05:44:01.105Z,61810.9
2018-05-11T05:45:01.169Z,62264.1
2018-05-11T05:46:01.247Z,62684.4
2018-05-11T05:47:01.148Z,63075.7
2018-05-11T05:48:01.106Z,63443.4
2018-05-11T05:49:01.106Z,63799.3
2018-05-11T05:50:01.115Z,64140.1
2018-05-11T05:51:01.310Z,64482.5
2018-05-11T05:52:02.213Z,64810.4
2018-05-11T05:53:01.107Z,65101.3
2018-05-11T05:54:01.112Z,65328.9
2018-05-11T05:55:01.107Z,65476.7
2018-05-11T05:56:01.249Z,65535.0
2018-05-11T06:00:02.194Z,65535.0
2018-05-11T06:15:01.094Z,65535.0
2018-05-11T06:30:01.220Z,65535.0
2018-05-11T06:45:03.304Z,65535.0
2018-05-11T07:00:06.108Z,65535.0
2018-05-11T07:15:01.109Z,65535.0
2018-05-11T07:30:06.110Z,65535.0
2018-05-11T07:45:01.103Z,65535.0
2018-05-11T08:00:06.118Z,65535.0
2018-05-11T08:15:01.106Z,65535.0
2018-05-11T08:30:01.317Z,65535.0
2018-05-11T08:45:01.111Z,65535.0
2018-05-11T09:00:03.167Z,65535.0
2018-05-11T09:15:01.104Z,65535.0
2018-05-11T09:30:06.255Z,65535.0
2018-05-11T09:45:01.103Z,65535.0
2018-05-11T10:00:03.102Z,65535.0
2018-05-11T10:15:06.347Z,65535.0
2018-05-11T10:30:04.450Z,65535.0
2018-05-11T10:45:01.100Z,65535.0
2018-05-11T11:00:06.179Z,65535.0
2018-05-11T11:15:01.091Z,65535.0
2018-05-11T11:30:05.173Z,65535.0
2018-05-11T11:45:04.469Z,65535.0
2018-05-11T12:00:06.749Z,65535.0
2018-05-11T12:15:01.097Z,65535.0
2018-05-11T12:30:06.315Z,65535.0
2018-05-11T12:45:01.103Z,65535.0
2018-05-11T13:00:03.145Z,65535.0
2018-05-11T13:15:10.439Z,65535.0
2018-05-11T13:30:06.098Z,65535.0
2018-05-11T13:45:01.102Z,65535.0
2018-05-11T14:00:06.175Z,65535.0
2018-05-11T14:15:01.109Z,65535.0
2018-05-11T14:30:01.096Z,65535.0
2018-05-11T14:45:01.111Z,65535.0
2018-05-11T15:00:06.043Z,65535.0
2018-05-11T15:15:01.108Z,65535.0
2018-05-11T15:30:01.094Z,65535.0
2018-05-11T15:45:01.094Z,65535.0
2018-05-11T16:00:06.176Z,65535.0
2018-05-11T16:15:01.093Z,65535.0
2018-05-11T16:30:06.104Z,65535.0
2018-05-11T16:38:07.383Z,65140.9
2018-05-11T16:39:01.180Z,64292.5
2018-05-11T16:40:01.065Z,63272.9
2018-05-11T16:41:01.098Z,62276.3
2018-05-11T16:42:01.103Z,61288.9
2018-05-11T16:43:01.284Z,60200.3
2018-05-11T16:44:01.102Z,59038.5
2018-05-11T16:45:01.109Z,57846.7
2018-05-11T16:46:01.097Z,56618.5
2018-05-11T16:47:01.065Z,55358.7
2018-05-11T16:48:01.287Z,54058.2
2018-05-11T16:49:01.148Z,52768.1
2018-05-11T16:50:01.155Z,51454.7
2018-05-11T16:51:01.107Z,50087.9
2018-05-11T16:52:01.105Z,48667.7
2018-05-11T16:53:01.242Z,47631.9
2018-05-11T16:54:01.138Z,47040.9
2018-05-11T16:55:01.103Z,46618.1
2018-05-11T16:56:01.096Z,46150.9
2018-05-11T16:57:01.118Z,45648.3
2018-05-11T16:58:01.259Z,45215.1
2018-05-11T16:59:01.136Z,44809.4
2018-05-11T17:00:01.103Z,44378.1
2018-05-11T17:01:01.109Z,43955.5
2018-05-11T17:02:01.102Z,43549.9
2018-05-11T17:03:01.250Z,43149.1
2018-05-11T17:04:01.152Z,42684.5
2018-05-11T17:05:01.108Z,42236.1
2018-05-11T17:07:01.059Z,41797.9
2018-05-11T17:08:01.269Z,41370.9
2018-05-11T17:09:01.097Z,40937.4
2018-05-11T17:10:01.085Z,40492.0
2018-05-11T17:11:01.088Z,40003.8
2018-05-11T17:12:01.054Z,39531.9
2018-05-11T17:13:01.361Z,39081.4
2018-05-11T17:14:01.120Z,38656.3
2018-05-11T17:15:01.096Z,38263.4
2018-05-11T17:16:01.096Z,37908.8
2018-05-11T17:17:01.091Z,37563.7
2018-05-11T17:18:01.311Z,37217.0
2018-05-11T17:19:02.153Z,36891.3
2018-05-11T17:20:01.086Z,36601.4
2018-05-11T17:21:01.124Z,36300.3
2018-05-11T17:22:01.060Z,36025.7
2018-05-11T17:23:01.360Z,35778.0
2018-05-11T17:24:01.095Z,35532.3
2018-05-11T17:25:01.097Z,35294.4
2018-05-11T17:26:01.091Z,35081.0
2018-05-11T17:27:01.132Z,34853.9
2018-05-11T17:28:01.300Z,34613.6
2018-05-11T17:29:01.092Z,34366.1
2018-05-11T17:30:01.179Z,34123.0
2018-05-11T17:31:01.095Z,33886.7
2018-05-11T17:32:01.137Z,33653.7
2018-05-11T17:33:01.244Z,33419.3
2018-05-11T17:34:01.097Z,33181.6
2018-05-11T17:35:01.096Z,32942.4
2018-05-11T17:36:01.098Z,32707.3
2018-05-11T17:37:01.126Z,32474.9
2018-05-11T17:38:01.235Z,32243.6
2018-05-11T17:39:01.091Z,32012.8
2018-05-11T17:40:01.094Z,31780.6
2018-05-11T17:41:06.158Z,31554.0
2018-05-11T17:42:01.128Z,31329.7
2018-05-11T17:43:01.250Z,31106.9
2018-05-11T17:44:01.068Z,30881.9
2018-05-11T17:45:01.096Z,30649.9
2018-05-11T17:46:01.102Z,30411.9
2018-05-11T17:47:01.120Z,30171.9
2018-05-11T17:48:01.245Z,29932.5
2018-05-11T17:49:01.099Z,29692.8
2018-05-11T17:50:01.100Z,29452.9
2018-05-11T17:51:01.101Z,29206.8
2018-05-11T17:52:01.102Z,28954.9
2018-05-11T17:53:01.251Z,28700.2
2018-05-11T17:54:01.109Z,28441.5
2018-05-11T17:55:01.109Z,28179.8
2018-05-11T17:56:01.103Z,27915.4
2018-05-11T17:57:01.176Z,27648.3
2018-05-11T17:58:06.315Z,27376.7
2018-05-11T17:59:01.099Z,27098.9
2018-05-11T18:00:01.111Z,26815.8
2018-05-11T18:01:01.101Z,26528.7
2018-05-11T18:02:01.104Z,26239.2
2018-05-11T18:03:01.244Z,25946.8
2018-05-11T18:04:01.099Z,25652.6
2018-05-11T18:05:01.100Z,25357.2
2018-05-11T18:06:01.100Z,25062.3
2018-05-11T18:07:01.108Z,24762.0
2018-05-11T18:08:01.270Z,24459.8
2018-05-11T18:09:01.104Z,24151.3
2018-05-11T18:10:01.126Z,23842.1
2018-05-11T18:11:01.146Z,23534.5
2018-05-11T18:12:01.106Z,23233.7
2018-05-11T18:13:01.252Z,22938.8
2018-05-11T18:15:01.088Z,22617.8
2018-05-11T18:16:01.056Z,22294.8
2018-05-11T18:17:01.126Z,21972.2
2018-05-11T18:18:01.087Z,21645.1
2018-05-11T18:19:06.249Z,21318.4
2018-05-11T18:20:01.212Z,20990.4
2018-05-11T18:21:01.091Z,20661.8
2018-05-11T18:22:01.126Z,20332.8
2018-05-11T18:23:01.093Z,20009.3
2018-05-11T18:24:01.233Z,19684.7
2018-05-11T18:25:01.092Z,19363.9
2018-05-11T18:26:01.090Z,19042.0
2018-05-11T18:27:01.090Z,18715.6
2018-05-11T18:28:01.127Z,18380.6
2018-05-11T18:29:01.241Z,18040.6
2018-05-11T18:30:01.146Z,17729.1
2018-05-11T18:31:01.176Z,17419.6
2018-05-11T18:32:01.099Z,17108.1
2018-05-11T18:33:01.117Z,16797.4
2018-05-11T18:34:01.244Z,16482.3
2018-05-11T18:35:01.105Z,16165.7
2018-05-11T18:36:01.097Z,15846.8
2018-05-11T18:37:01.100Z,15524.7
2018-05-11T18:38:01.134Z,15200.1
2018-05-11T18:39:01.247Z,14873.7
2018-05-11T18:40:01.096Z,14544.3
2018-05-11T18:41:01.094Z,14210.9
2018-05-11T18:42:01.108Z,13875.0
2018-05-11T18:43:01.087Z,13536.0
2018-05-11T18:44:01.245Z,13194.0
2018-05-11T18:45:01.100Z,12848.6
2018-05-11T18:46:01.102Z,12502.4
2018-05-11T18:47:01.180Z,12154.9
2018-05-11T18:48:01.099Z,11807.9
2018-05-11T18:49:01.257Z,11462.2
2018-05-11T18:50:01.097Z,11117.7
2018-05-11T18:51:01.100Z,10774.3
2018-05-11T18:52:01.139Z,10432.7
2018-05-11T18:53:01.141Z,10091.9
2018-05-11T18:54:01.601Z,9752.1
2018-05-11T18:55:01.101Z,9415.0
2018-05-11T18:56:01.104Z,9081.7
2018-05-11T18:57:01.141Z,8752.2
2018-05-11T18:58:01.110Z,8427.1
2018-05-11T18:59:01.245Z,8105.2
2018-05-11T19:00:01.105Z,7786.9
2018-05-11T19:01:01.102Z,7472.1
2018-05-11T19:02:01.135Z,7163.4
2018-05-11T19:03:01.074Z,6860.5
2018-05-11T19:04:01.241Z,6563.9
2018-05-11T19:05:01.104Z,6272.8
2018-05-11T19:06:01.100Z,5987.8
2018-05-11T19:07:01.120Z,5708.5
2018-05-11T19:08:01.147Z,5435.4
2018-05-11T19:09:01.348Z,5167.9
2018-05-11T19:10:01.114Z,4906.3
2018-05-11T19:11:01.106Z,4650.4
2018-05-11T19:12:01.143Z,4400.5
2018-05-11T19:13:01.106Z,4156.9
2018-05-11T19:14:01.316Z,3920.5
2018-05-11T19:15:01.108Z,3691.0
2018-05-11T19:16:01.109Z,3468.5
2018-05-11T19:17:01.118Z,3251.9
2018-05-11T19:18:01.129Z,3041.9
2018-05-11T19:19:01.281Z,2838.1
2018-05-11T19:20:01.116Z,2641.5
2018-05-11T19:24:02.309Z,1933.1
2018-05-11T19:25:01.111Z,1776.3
2018-05-11T19:26:01.213Z,1628.2
2018-05-11T19:27:01.110Z,1488.7
2018-05-11T19:29:06.783Z,1353.7
2018-05-11T19:30:01.091Z,1227.7
2018-05-11T19:31:01.055Z,1110.6
2018-05-11T19:32:01.096Z,1002.1
2018-05-11T19:33:01.114Z,901.9
2018-05-11T19:34:01.241Z,809.5
2018-05-11T19:35:01.099Z,724.6
2018-05-11T19:36:01.093Z,646.9
2018-05-11T19:37:02.121Z,575.9
2018-05-11T19:38:01.112Z,511.5
2018-05-11T19:39:01.208Z,453.1
2018-05-11T19:40:01.098Z,400.3
2018-05-11T19:41:01.096Z,352.6
2018-05-11T19:42:01.099Z,309.7
2018-05-11T19:43:01.121Z,271.1
2018-05-11T19:44:02.271Z,240.7
2018-05-11T19:45:01.093Z,213.7
2018-05-11T19:46:01.100Z,189.5
2018-05-11T19:47:01.129Z,167.9
2018-05-11T19:48:01.101Z,149.0
2018-05-11T19:49:01.251Z,132.2
2018-05-11T19:50:01.105Z,117.3
2018-05-11T19:51:01.100Z,104.1
2018-05-11T19:52:01.125Z,92.5
2018-05-11T19:53:01.132Z,82.1
2018-05-11T19:54:01.303Z,72.9
2018-05-11T19:55:01.100Z,64.7
2018-05-11T19:56:02.161Z,57.5
2018-05-11T19:57:01.063Z,51.1
2018-05-11T19:58:01.119Z,45.5
2018-05-11T19:59:01.280Z,40.3
2018-05-11T20:00:01.103Z,35.7
2018-05-11T20:01:01.097Z,31.7
2018-05-11T20:02:01.074Z,28.1
2018-05-11T20:03:01.141Z,24.6
2018-05-11T20:04:01.248Z,21.5
2018-05-11T20:05:01.100Z,18.9
2018-05-11T20:06:01.103Z,16.5
2018-05-11T20:07:01.100Z,14.5
2018-05-11T20:08:01.123Z,12.7
2018-05-11T20:09:02.306Z,11.1
2018-05-11T20:10:01.148Z,9.8
2018-05-11T20:11:01.160Z,8.6
2018-05-11T20:12:01.101Z,7.6
2018-05-11T20:13:01.074Z,6.7
2018-05-11T20:14:01.284Z,5.9
2018-05-11T20:15:01.065Z,5.2
2018-05-11T20:16:01.112Z,4.6
2018-05-11T20:17:01.109Z,4.1
2018-05-11T20:18:01.108Z,3.6
2018-05-11T20:19:01.301Z,3.2
2018-05-11T20:20:01.077Z,2.8
2018-05-11T20:21:01.111Z,2.5
2018-05-11T20:22:01.110Z,2.2
2018-05-11T20:23:01.109Z,2.0
2018-05-11T20:25:01.228Z,1.8
2018-05-11T20:26:01.060Z,1.6
2018-05-11T20:27:01.096Z,1.5
2018-05-11T20:28:01.097Z,1.3
2018-05-11T20:29:01.274Z,1.2
2018-05-11T20:30:01.099Z,1.1
2018-05-11T20:31:01.097Z,0.9
2018-05-11T20:32:01.123Z,0.8
2018-05-11T20:33:01.095Z,0.7
2018-05-11T20:34:01.245Z,0.6
2018-05-11T20:35:01.110Z,0.5
2018-05-11T20:37:06.102Z,0.4
2018-05-11T20:38:01.100Z,0.3
2018-05-11T20:40:01.100Z,0.2
2018-05-11T20:41:01.102Z,0.1
